This demonstration page uses our WeatherBlox Daily Observations layout. Learn more.

Left ArrowRight Arrow

38.83388, -104.82136

Hourly Observations for November 30, 2022

Temp ( °F °C ) Dew Point ( °F °C ) Humidity (%) Winds ( mph kmh ) Pressure ( in mb ) Visibility ( mi km ) Precip ( " mm )
12:55 am 00:55 Clear 16 -8.9 5 -15.1 61 61 Calm N/A 10 16 0.00 0.00
1:55 am 01:55 Clear 16 -9.1 3 -16.1 57 57 SSE 3 6 N/A 10 16 0.00 0.00
2:55 am 02:55 Clear 17 -8.6 5 -15.2 59 59 S 6 9 N/A 10 16 0.00 0.00
3:55 am 03:55 Clear 14 -9.8 5 -15 66 66 S 7 11 N/A 10 16 0.00 0.00
4:55 am 04:55 Clear 16 -9.1 4 -15.3 61 61 S 8 13 N/A 10 16 0.00 0.00
5:55 am 05:55 Clear 16 -9 5 -15 62 62 S 8 13 N/A 10 16 0.00 0.00
6:55 am 06:55 Clear 14 -9.9 6 -14.4 70 70 NW 3 6 N/A 10 16 0.00 0.00
7:55 am 07:55 Sunny 19 -7.5 9 -13 65 65 SSE 3 6 N/A 10 16 0.00 0.00
8:55 am 08:55 Sunny 21 -6.3 12 -11.1 69 69 SE 6 9 N/A 10 16 0.00 0.00
9:55 am 09:55 Sunny 22 -5.6 13 -10.8 67 67 ESE 3 6 N/A 10 16 0.00 0.00
10:55 am 10:55 Sunny 22 -5.3 12 -10.9 65 65 Calm N/A 10 16 0.00 0.00
11:55 am 11:55 Sunny 24 -4.2 15 -9.2 68 68 SSE 5 7 N/A 10 16 0.00 0.00
12:55 pm 12:55 Sunny 28 -2.2 19 -7.3 68 68 SSE 10 17 N/A 10 16 0.00 0.00
1:55 pm 13:55 Sunny 31 -0.8 22 -5.8 69 69 S 8 13 N/A 10 16 0.00 0.00
2:55 pm 14:55 Sunny 30 -1 22 -5.6 71 71 S 7 11 N/A 10 16 0.00 0.00
3:55 pm 15:55 Sunny 34 1 11 -11.7 38 38 SSE 10 17 N/A 10 16 0.00 0.00
4:55 pm 16:55 Clear 30 -1.3 16 -9 56 56 SSE 6 9 N/A 10 16 0.00 0.00
5:55 pm 17:55 Clear 26 -3.6 17 -8.5 69 69 Calm N/A 10 16 0.00 0.00
6:55 pm 18:55 Clear 26 -3.5 16 -8.8 67 67 Calm N/A 10 16 0.00 0.00
7:55 pm 19:55 Mostly Cloudy 27 -2.7 18 -8 67 67 NW 3 6 N/A 10 16 0.00 0.00
8:55 pm 20:55 Mostly Cloudy 31 -0.3 16 -8.7 53 53 S 9 15 N/A 10 16 0.00 0.00
9:55 pm 21:55 Clear 33 0.8 13 -10.7 42 42 SSE 7 11 N/A 10 16 0.00 0.00
10:55 pm 22:55 Clear 35 1.4 11 -11.4 38 38 SSW 8 13 N/A 10 16 0.00 0.00
11:55 pm 23:55 Clear 40 4.2 8 -13.6 26 26 SSW 15 24 N/A 10 16 0.00 0.00

Powered by AerisWeather